Time;durP1;ratioP1;P1;durP2;ratioP2;P2;SDS_P1;SDS_P2;PMS_P1;PMS_P2;Temp;Humidity;BMP_temperature;BMP_pressure;BME280_temperature;BME280_humidity;BME280_pressure;Samples;Min_cycle;Max_cycle;Signal;HPM_P1;HPM_P2
2023/07/14 00:01:59;;;;;;;11.77;5.80;;;15.40;99.90;;;;;;12527529;28;20056;-36
2023/07/14 00:08:03;;;;;;;8.85;5.25;;;15.40;99.90;;;;;;12524422;28;20040;-36
2023/07/14 00:14:05;;;;;;;9.70;5.97;;;15.40;99.90;;;;;;12528546;28;20057;-36
2023/07/14 00:20:29;;;;;;;10.90;5.95;;;15.30;99.90;;;;;;12531663;28;20048;-36
2023/07/14 00:26:31;;;;;;;8.95;5.78;;;15.30;99.90;;;;;;12506936;28;20052;-36
2023/07/14 00:32:32;;;;;;;8.27;5.90;;;15.40;99.90;;;;;;12535217;28;20057;-37
2023/07/14 00:38:34;;;;;;;9.55;6.30;;;15.30;99.90;;;;;;12531239;28;20045;-36
2023/07/14 00:44:36;;;;;;;10.98;6.60;;;15.40;99.90;;;;;;12531189;28;20064;-36
2023/07/14 00:51:06;;;;;;;9.77;6.32;;;15.30;99.90;;;;;;12538054;28;20550;-37
2023/07/14 00:57:16;;;;;;;10.52;6.20;;;15.20;99.90;;;;;;12512857;28;20056;-36
2023/07/14 01:03:18;;;;;;;10.73;6.70;;;15.20;99.90;;;;;;12533541;28;20057;-36
2023/07/14 01:09:20;;;;;;;12.07;6.30;;;15.20;99.90;;;;;;12533770;28;20045;-35
2023/07/14 01:15:22;;;;;;;9.77;5.53;;;15.20;99.90;;;;;;12510009;28;20072;-35
2023/07/14 01:21:25;;;;;;;9.07;5.65;;;15.40;99.90;;;;;;12528259;28;20060;-35
2023/07/14 01:27:27;;;;;;;10.18;5.97;;;15.30;99.90;;;;;;12508763;28;20046;-36
2023/07/14 01:33:28;;;;;;;7.60;5.07;;;15.40;99.90;;;;;;12530456;28;20099;-35
2023/07/14 01:39:30;;;;;;;8.00;5.60;;;15.80;99.90;;;;;;12511046;28;20487;-35
2023/07/14 01:45:43;;;;;;;8.43;5.47;;;15.80;99.90;;;;;;12524102;28;20052;-35
2023/07/14 01:51:48;;;;;;;8.13;5.07;;;15.80;99.90;;;;;;12514233;28;20045;-35
2023/07/14 01:57:54;;;;;;;9.90;5.18;;;15.80;99.90;;;;;;12514707;28;20599;-35
2023/07/14 02:03:59;;;;;;;8.82;5.72;;;15.70;99.90;;;;;;12511012;28;20425;-35
2023/07/14 02:10:01;;;;;;;11.05;5.78;;;15.30;99.90;;;;;;12519537;28;20094;-35
2023/07/14 02:16:04;;;;;;;10.27;5.65;;;15.20;99.90;;;;;;12519112;28;20413;-35
2023/07/14 02:22:06;;;;;;;7.85;4.95;;;15.10;99.90;;;;;;12535679;28;20087;-35
2023/07/14 02:28:11;;;;;;;8.05;5.20;;;15.10;99.90;;;;;;12523175;28;20389;-35
2023/07/14 02:34:15;;;;;;;8.30;4.55;;;15.10;99.90;;;;;;12517934;28;20076;-35
2023/07/14 02:40:18;;;;;;;9.75;4.90;;;15.10;99.90;;;;;;12503619;28;20421;-35
2023/07/14 02:46:47;;;;;;;8.93;4.82;;;15.00;99.90;;;;;;12507945;28;20079;-35
2023/07/14 02:52:51;;;;;;;12.15;4.65;;;15.10;99.90;;;;;;12521311;28;20436;-35
2023/07/14 02:58:53;;;;;;;12.18;4.65;;;15.00;99.90;;;;;;12508839;28;20037;-35
2023/07/14 03:04:55;;;;;;;10.77;5.20;;;14.90;99.90;;;;;;12503504;28;20045;-35
2023/07/14 03:10:59;;;;;;;7.72;4.95;;;14.80;99.90;;;;;;12507381;28;20706;-35
2023/07/14 03:17:01;;;;;;;7.13;4.90;;;14.90;99.90;;;;;;12506273;28;20136;-35
2023/07/14 03:23:04;;;;;;;9.63;4.53;;;14.80;99.90;;;;;;12505652;28;20056;-35
2023/07/14 03:29:06;;;;;;;9.57;5.17;;;14.90;99.90;;;;;;12508493;28;20058;-35
2023/07/14 03:35:08;;;;;;;8.38;5.10;;;14.90;99.90;;;;;;12500274;28;20045;-35
2023/07/14 03:41:12;;;;;;;10.73;6.60;;;15.00;99.90;;;;;;12501255;28;20544;-35
2023/07/14 03:47:15;;;;;;;10.10;5.13;;;15.00;99.90;;;;;;12497783;28;20049;-35
2023/07/14 03:53:16;;;;;;;12.23;6.20;;;15.00;99.90;;;;;;12514669;28;20447;-35
2023/07/14 03:59:19;;;;;;;12.40;4.68;;;15.00;99.90;;;;;;12508225;28;20441;-35
2023/07/14 04:05:20;;;;;;;10.32;4.38;;;15.00;99.90;;;;;;12515265;28;20041;-35
2023/07/14 04:11:22;;;;;;;11.70;4.53;;;15.10;99.90;;;;;;12510260;28;20386;-35
2023/07/14 04:17:24;;;;;;;8.80;4.82;;;15.30;99.90;;;;;;12517759;28;20045;-36
2023/07/14 04:23:26;;;;;;;8.45;3.90;;;15.60;99.90;;;;;;12491268;28;20072;-35
2023/07/14 04:29:29;;;;;;;8.85;4.07;;;15.40;99.90;;;;;;12520271;28;20502;-35
2023/07/14 04:35:32;;;;;;;10.38;4.88;;;15.60;99.90;;;;;;12514237;28;20060;-35
2023/07/14 04:41:35;;;;;;;13.43;6.28;;;15.70;99.90;;;;;;12513039;28;20516;-35
2023/07/14 04:47:37;;;;;;;8.27;5.00;;;15.60;99.90;;;;;;12505341;28;20049;-35
2023/07/14 04:53:39;;;;;;;10.32;4.65;;;15.20;99.90;;;;;;12506395;28;20060;-35
2023/07/14 04:59:42;;;;;;;9.75;4.95;;;15.40;99.90;;;;;;12497885;28;20060;-36
2023/07/14 05:05:45;;;;;;;8.82;4.55;;;15.50;99.90;;;;;;12509561;28;20091;-36
2023/07/14 05:11:47;;;;;;;7.55;3.80;;;15.30;99.90;;;;;;12507199;28;20061;-35
2023/07/14 05:17:50;;;;;;;8.90;3.80;;;15.30;99.90;;;;;;12502369;28;20049;-34
2023/07/14 05:23:52;;;;;;;9.48;3.50;;;15.40;99.90;;;;;;12517447;28;20485;-36
2023/07/14 05:29:54;;;;;;;8.13;3.60;;;15.50;99.90;;;;;;12509921;28;20056;-35
2023/07/14 05:35:56;;;;;;;7.93;4.03;;;15.50;99.90;;;;;;12505779;28;20056;-35
2023/07/14 05:41:58;;;;;;;9.82;3.90;;;15.60;99.90;;;;;;12504975;28;20132;-35
2023/07/14 05:48:01;;;;;;;6.82;3.00;;;16.00;99.90;;;;;;12507710;28;20063;-35
2023/07/14 05:54:02;;;;;;;5.50;3.42;;;16.40;99.90;;;;;;12493816;28;20485;-35
2023/07/14 06:00:12;;;;;;;9.07;3.80;;;16.70;99.90;;;;;;12497907;28;20044;-36
2023/07/14 06:06:14;;;;;;;9.93;3.72;;;16.90;99.90;;;;;;12476933;28;20048;-35
2023/07/14 06:12:17;;;;;;;7.93;3.65;;;17.00;99.90;;;;;;12530393;28;20131;-36
2023/07/14 06:18:19;;;;;;;10.00;4.03;;;17.10;99.90;;;;;;12506870;28;20089;-36
2023/07/14 06:24:22;;;;;;;7.55;3.10;;;17.20;99.90;;;;;;12497630;28;20437;-35
2023/07/14 06:30:25;;;;;;;8.90;3.20;;;17.30;99.90;;;;;;12504384;28;20044;-35
2023/07/14 06:36:27;;;;;;;7.82;3.00;;;17.50;99.90;;;;;;12496377;28;20077;-36
2023/07/14 06:42:29;;;;;;;7.75;2.75;;;17.80;99.90;;;;;;12520489;28;20128;-36
2023/07/14 06:48:30;;;;;;;5.93;2.95;;;17.90;99.90;;;;;;12503930;28;20511;-36
2023/07/14 06:54:32;;;;;;;5.60;2.55;;;18.10;99.90;;;;;;12519415;28;20128;-35
2023/07/14 07:00:35;;;;;;;5.07;2.53;;;18.50;99.90;;;;;;12516535;28;20042;-35
2023/07/14 07:06:37;;;;;;;7.13;2.50;;;18.80;99.90;;;;;;12522632;28;20041;-35
2023/07/14 07:12:40;;;;;;;6.25;2.58;;;18.80;99.90;;;;;;12512119;28;20064;-36
2023/07/14 07:18:42;;;;;;;5.95;2.25;;;18.60;99.90;;;;;;12501677;28;20059;-36
2023/07/14 07:24:44;;;;;;;5.32;2.10;;;18.70;99.90;;;;;;12516854;28;20509;-36
2023/07/14 07:30:47;;;;;;;5.97;2.08;;;18.80;99.90;;;;;;12513951;28;20089;-36
2023/07/14 07:36:49;;;;;;;5.57;2.50;;;18.90;99.90;;;;;;12520176;28;20085;-36
2023/07/14 07:42:54;;;;;;;5.57;1.92;;;19.00;99.90;;;;;;12530622;28;20064;-36
2023/07/14 07:48:56;;;;;;;6.22;2.50;;;19.00;99.90;;;;;;12516834;28;20064;-36
2023/07/14 07:54:58;;;;;;;4.38;2.10;;;19.30;99.90;;;;;;12508433;28;20046;-35
2023/07/14 08:01:02;;;;;;;5.10;1.85;;;19.50;99.90;;;;;;12532511;28;20056;-36
2023/07/14 08:07:12;;;;;;;4.18;1.85;;;19.60;99.90;;;;;;12495449;28;20045;-35
2023/07/14 08:13:15;;;;;;;4.28;1.95;;;19.60;99.90;;;;;;12516693;28;20049;-36
2023/07/14 08:19:17;;;;;;;5.93;2.00;;;19.70;99.90;;;;;;12503131;28;20072;-35
2023/07/14 08:25:21;;;;;;;6.75;2.33;;;19.90;99.90;;;;;;12511205;28;20050;-36
2023/07/14 08:31:23;;;;;;;9.80;2.00;;;20.00;99.90;;;;;;12516543;28;20080;-35
2023/07/14 08:37:25;;;;;;;5.13;2.28;;;20.10;99.90;;;;;;12508072;28;20051;-36
2023/07/14 08:43:45;;;;;;;5.60;2.28;;;20.30;99.90;;;;;;12524022;28;20037;-36
2023/07/14 08:49:47;;;;;;;5.38;2.42;;;20.50;99.90;;;;;;12508991;28;20079;-35
2023/07/14 08:55:50;;;;;;;5.32;2.22;;;20.70;99.90;;;;;;12533535;28;20087;-36
2023/07/14 09:01:54;;;;;;;9.05;2.20;;;20.80;99.90;;;;;;12503393;28;20136;-36
2023/07/14 09:07:56;;;;;;;8.77;2.58;;;21.10;99.90;;;;;;12488591;28;20065;-36
2023/07/14 09:14:19;;;;;;;5.90;1.80;;;21.30;99.90;;;;;;12506659;28;20055;-36
2023/07/14 09:20:40;;;;;;;5.32;1.75;;;21.60;99.90;;;;;;12525188;28;20485;-36
2023/07/14 09:26:51;;;;;;;4.38;1.42;;;22.10;99.90;;;;;;12511475;28;20064;-36
2023/07/14 09:33:01;;;;;;;3.85;1.80;;;22.60;99.90;;;;;;12515488;28;20429;-36
2023/07/14 09:39:10;;;;;;;5.55;1.80;;;22.40;99.90;;;;;;12506526;28;20037;-36
2023/07/14 09:45:21;;;;;;;3.38;1.85;;;22.90;99.90;;;;;;12495984;28;20395;-36
2023/07/14 09:51:24;;;;;;;4.38;1.90;;;22.20;99.90;;;;;;12488799;28;20544;-36
2023/07/14 09:57:32;;;;;;;5.97;1.60;;;21.90;99.90;;;;;;12536036;28;20475;-36
2023/07/14 10:03:54;;;;;;;5.20;1.55;;;22.60;99.90;;;;;;12506369;28;20080;-36
2023/07/14 10:09:58;;;;;;;5.15;2.10;;;23.10;99.90;;;;;;12493068;28;20448;-36
2023/07/14 10:16:07;;;;;;;7.93;2.05;;;23.10;99.90;;;;;;12496782;28;20113;-36
2023/07/14 10:22:13;;;;;;;6.63;1.83;;;23.50;99.90;;;;;;12523909;28;20531;-36
2023/07/14 10:28:23;;;;;;;5.00;2.17;;;24.00;99.90;;;;;;12493242;28;20057;-36
2023/07/14 10:34:50;;;;;;;5.50;1.80;;;24.00;99.90;;;;;;12518598;28;20400;-36
2023/07/14 10:40:59;;;;;;;6.78;1.92;;;24.20;99.90;;;;;;12514410;28;20556;-36
2023/07/14 10:47:10;;;;;;;3.08;1.70;;;24.70;99.90;;;;;;12504420;28;20496;-36
2023/07/14 10:53:20;;;;;;;4.78;2.03;;;25.20;99.90;;;;;;12514856;28;20493;-36
2023/07/14 10:59:33;;;;;;;4.80;2.20;;;24.90;99.90;;;;;;12508544;28;20072;-36
2023/07/14 11:05:38;;;;;;;5.25;2.00;;;25.00;99.90;;;;;;12496551;28;20088;-36
2023/07/14 11:11:54;;;;;;;6.70;2.47;;;24.60;99.90;;;;;;12499999;28;20085;-35
2023/07/14 11:17:59;;;;;;;4.95;2.10;;;24.30;99.90;;;;;;12530979;28;20599;-36
2023/07/14 11:24:14;;;;;;;5.68;2.20;;;24.40;99.90;;;;;;12503464;28;20126;-36
2023/07/14 11:30:29;;;;;;;6.32;2.05;;;24.10;99.90;;;;;;12523752;28;20087;-36
2023/07/14 11:36:44;;;;;;;5.82;2.17;;;23.70;99.90;;;;;;12530732;28;20124;-36
2023/07/14 11:42:56;;;;;;;4.00;1.67;;;24.30;99.90;;;;;;12527808;28;20045;-36
2023/07/14 11:49:03;;;;;;;7.30;2.23;;;23.80;99.90;;;;;;12527252;28;20045;-36
2023/07/14 11:55:27;;;;;;;5.57;2.20;;;23.60;99.90;;;;;;12515866;28;20040;-36
2023/07/14 12:01:30;;;;;;;7.22;2.25;;;23.90;99.90;;;;;;12530693;28;20052;-36
2023/07/14 12:07:34;;;;;;;7.70;2.40;;;23.80;99.90;;;;;;12516903;28;20076;-36
2023/07/14 12:13:38;;;;;;;6.18;2.13;;;24.00;99.90;;;;;;12513423;28;20045;-36
2023/07/14 12:19:52;;;;;;;5.80;2.58;;;24.00;99.90;;;;;;12524854;28;20045;-36
2023/07/14 12:26:01;;;;;;;6.63;2.00;;;23.80;99.90;;;;;;12505706;28;20527;-36
2023/07/14 12:32:16;;;;;;;7.45;2.20;;;23.50;99.90;;;;;;12502389;28;20056;-36
2023/07/14 12:38:21;;;;;;;4.97;2.10;;;23.70;99.90;;;;;;12521995;28;20405;-36
2023/07/14 12:44:32;;;;;;;5.57;2.13;;;23.60;99.90;;;;;;12524739;28;20060;-36
2023/07/14 12:50:37;;;;;;;4.97;2.03;;;23.80;99.90;;;;;;12502636;28;20053;-36
2023/07/14 12:56:39;;;;;;;5.03;2.25;;;24.40;99.90;;;;;;12506023;28;20053;-36
2023/07/14 13:02:41;;;;;;;4.22;1.77;;;24.40;99.90;;;;;;12527631;28;20049;-36
2023/07/14 13:08:51;;;;;;;4.55;2.00;;;24.40;99.90;;;;;;12503769;28;20054;-36
2023/07/14 13:14:57;;;;;;;4.97;2.25;;;24.80;99.90;;;;;;12502761;28;20037;-36
2023/07/14 13:21:02;;;;;;;4.70;2.10;;;24.80;99.90;;;;;;12517705;28;20041;-36
2023/07/14 13:27:18;;;;;;;4.68;2.08;;;24.90;99.90;;;;;;12506573;28;20103;-36
2023/07/14 13:33:25;;;;;;;4.60;1.77;;;24.70;99.90;;;;;;12510161;28;20060;-36
2023/07/14 13:39:35;;;;;;;8.27;2.20;;;24.60;99.90;;;;;;12509760;28;20045;-36
2023/07/14 13:45:38;;;;;;;4.60;2.00;;;24.90;99.90;;;;;;12486706;28;20057;-36
2023/07/14 13:51:40;;;;;;;;;;;25.10;99.90;;;;;;12496267;28;20600;-36
2023/07/14 13:57:42;;;;;;;5.70;2.00;;;25.10;99.90;;;;;;12508334;28;19924;-36
2023/07/14 14:03:54;;;;;;;4.47;1.83;;;24.80;99.90;;;;;;12514852;28;20052;-37
2023/07/14 14:09:56;;;;;;;3.20;1.92;;;24.80;99.90;;;;;;12513651;28;20409;-36
2023/07/14 14:16:02;;;;;;;4.88;2.20;;;24.60;99.90;;;;;;12515974;28;20473;-36
2023/07/14 14:22:09;;;;;;;7.20;2.20;;;24.40;99.90;;;;;;12531339;28;20049;-36
2023/07/14 14:28:11;;;;;;;5.82;2.00;;;24.70;99.90;;;;;;12500702;28;20083;-36
2023/07/14 14:34:16;;;;;;;4.20;2.13;;;25.00;99.90;;;;;;12510045;28;20057;-36
2023/07/14 14:40:18;;;;;;;5.60;1.92;;;25.10;99.90;;;;;;12525582;28;20068;-36
2023/07/14 14:46:21;;;;;;;4.15;2.10;;;25.30;99.90;;;;;;12512092;28;20065;-37
2023/07/14 14:52:25;;;;;;;4.28;1.98;;;25.50;99.90;;;;;;12507955;28;20052;-36
2023/07/14 14:58:28;;;;;;;;;;;25.10;99.90;;;;;;12528267;28;20045;-37
2023/07/14 15:04:32;;;;;;;3.72;2.33;;;25.20;99.90;;;;;;12520607;28;19920;-36
2023/07/14 15:10:35;;;;;;;5.85;2.00;;;25.20;99.90;;;;;;12485384;28;20080;-37
2023/07/14 15:16:36;;;;;;;3.88;1.90;;;25.30;99.90;;;;;;12515600;28;20084;-36
2023/07/14 15:22:39;;;;;;;7.73;2.90;;;25.50;99.90;;;;;;12483095;28;20045;-36
2023/07/14 15:28:41;;;;;;;4.57;2.47;;;25.70;99.90;;;;;;12498563;28;20465;-37
2023/07/14 15:34:43;;;;;;;5.57;2.30;;;25.70;99.90;;;;;;12515628;28;20140;-36
2023/07/14 15:40:49;;;;;;;4.68;2.50;;;25.40;99.90;;;;;;12522806;28;20124;-37
2023/07/14 15:46:51;;;;;;;4.07;2.20;;;25.40;99.90;;;;;;12508015;28;20142;-36
2023/07/14 15:52:58;;;;;;;5.87;2.67;;;25.20;99.90;;;;;;12534880;28;20053;-37
2023/07/14 15:59:00;;;;;;;5.95;2.47;;;24.90;99.90;;;;;;12510958;28;20053;-36
2023/07/14 16:05:02;;;;;;;3.50;1.95;;;24.90;99.90;;;;;;12526286;28;20041;-36
2023/07/14 16:11:33;;;;;;;5.40;2.55;;;25.00;99.90;;;;;;12502238;28;20057;-37
2023/07/14 16:17:35;;;;;;;4.82;2.40;;;25.00;99.90;;;;;;12515803;28;20049;-36
2023/07/14 16:23:37;;;;;;;6.70;2.60;;;24.80;99.90;;;;;;12526739;28;20102;-37
2023/07/14 16:29:39;;;;;;;7.93;2.50;;;24.70;99.90;;;;;;12486226;28;20363;-36
2023/07/14 16:35:43;;;;;;;5.22;2.30;;;25.10;99.90;;;;;;12513578;28;20504;-37
2023/07/14 16:41:45;;;;;;;7.63;2.28;;;25.60;99.90;;;;;;12513138;28;20048;-37
2023/07/14 16:47:47;;;;;;;5.45;2.35;;;25.80;99.90;;;;;;12485217;28;20136;-37
2023/07/14 16:53:50;;;;;;;4.97;2.47;;;26.00;99.90;;;;;;12524671;28;20056;-37
2023/07/14 16:59:53;;;;;;;8.00;2.20;;;26.10;99.90;;;;;;12515288;28;20128;-36
2023/07/14 17:05:57;;;;;;;4.32;2.50;;;26.10;99.90;;;;;;12496432;28;20049;-37
2023/07/14 17:11:59;;;;;;;5.45;2.20;;;26.20;99.90;;;;;;12517532;28;20053;-37
2023/07/14 17:18:01;;;;;;;5.23;2.30;;;26.30;99.90;;;;;;12517790;28;20049;-36
2023/07/14 17:24:08;;;;;;;5.03;2.15;;;26.40;99.90;;;;;;12510653;28;20046;-36
2023/07/14 17:30:19;;;;;;;4.70;2.10;;;26.20;99.90;;;;;;12512558;28;20049;-37
2023/07/14 17:36:21;;;;;;;4.93;2.00;;;26.40;99.90;;;;;;12511789;28;20160;-36
2023/07/14 17:42:24;;;;;;;5.33;2.13;;;26.30;99.90;;;;;;12492655;28;20045;-35
2023/07/14 17:48:26;;;;;;;6.13;2.25;;;25.70;99.90;;;;;;12500092;28;20080;-36
2023/07/14 17:54:41;;;;;;;7.60;2.83;;;25.10;99.90;;;;;;12520565;28;20100;-36
2023/07/14 18:00:44;;;;;;;5.25;2.03;;;24.70;99.90;;;;;;12518710;28;20053;-35
2023/07/14 18:06:46;;;;;;;6.60;2.22;;;24.50;99.90;;;;;;12502175;28;20045;-36
2023/07/14 18:12:48;;;;;;;4.37;1.97;;;24.30;99.90;;;;;;12511533;28;20056;-36
2023/07/14 18:18:50;;;;;;;14.18;2.25;;;24.10;99.90;;;;;;12518039;28;20132;-36
2023/07/14 18:24:54;;;;;;;5.07;2.03;;;24.00;99.90;;;;;;12493543;28;20096;-36
2023/07/14 18:30:58;;;;;;;6.47;2.10;;;23.90;99.90;;;;;;12506561;28;20147;-35
2023/07/14 18:37:00;;;;;;;5.57;2.28;;;23.70;99.90;;;;;;12511443;28;20061;-36
2023/07/14 18:43:02;;;;;;;4.85;2.17;;;23.60;99.90;;;;;;12502130;28;20049;-36
2023/07/14 18:49:16;;;;;;;5.17;2.27;;;23.50;99.90;;;;;;12481296;28;20668;-36
2023/07/14 18:55:20;;;;;;;8.10;2.70;;;23.40;99.90;;;;;;12518350;28;20401;-35
2023/07/14 19:01:23;;;;;;;9.52;2.63;;;23.20;99.90;;;;;;12525580;28;20041;-36
2023/07/14 19:07:26;;;;;;;7.05;2.40;;;23.20;99.90;;;;;;12508329;28;20064;-35
2023/07/14 19:13:35;;;;;;;7.28;2.20;;;23.10;99.90;;;;;;12495746;28;20136;-36
2023/07/14 19:19:37;;;;;;;8.55;2.20;;;23.00;99.90;;;;;;12524374;28;20071;-36
2023/07/14 19:25:39;;;;;;;7.93;2.33;;;22.90;99.90;;;;;;12503707;28;20049;-36
2023/07/14 19:31:43;;;;;;;9.50;2.63;;;22.80;99.90;;;;;;12500403;28;20053;-35
2023/07/14 19:37:47;;;;;;;5.72;2.10;;;22.70;99.90;;;;;;12514448;28;20057;-36
2023/07/14 19:43:50;;;;;;;5.97;2.00;;;22.70;99.90;;;;;;12500023;28;20474;-36
2023/07/14 19:49:53;;;;;;;6.45;2.17;;;22.70;99.90;;;;;;12497456;28;20050;-36
2023/07/14 19:55:57;;;;;;;6.10;2.10;;;22.50;99.90;;;;;;12517834;28;20106;-36
2023/07/14 20:01:59;;;;;;;5.30;1.95;;;22.50;99.90;;;;;;12517514;28;20045;-36
2023/07/14 20:08:01;;;;;;;7.90;2.33;;;22.40;99.90;;;;;;12503966;28;20505;-36
2023/07/14 20:14:27;;;;;;;7.30;2.40;;;22.30;99.90;;;;;;12513364;28;20068;-35
2023/07/14 20:20:29;;;;;;;5.18;1.95;;;22.30;99.90;;;;;;12526031;28;20044;-36
2023/07/14 20:26:33;;;;;;;5.18;2.30;;;22.50;99.90;;;;;;12525516;28;20080;-36
2023/07/14 20:32:35;;;;;;;5.60;2.17;;;22.40;99.90;;;;;;12516854;28;20064;-36
2023/07/14 20:38:37;;;;;;;5.43;2.22;;;22.40;99.90;;;;;;12521350;28;20056;-36
2023/07/14 20:44:39;;;;;;;4.93;1.95;;;22.40;99.90;;;;;;12507016;28;20041;-36
2023/07/14 20:50:43;;;;;;;5.88;2.15;;;22.30;99.90;;;;;;12504011;28;20046;-36
2023/07/14 20:56:44;;;;;;;;;;;22.30;99.90;;;;;;12518670;28;20094;-37
2023/07/14 21:02:46;;;;;;;3.65;1.88;;;22.30;99.90;;;;;;12540426;28;19988;-36
2023/07/14 21:08:51;;;;;;;4.15;2.10;;;22.30;99.90;;;;;;12520936;28;20517;-37
2023/07/14 21:14:53;;;;;;;4.97;2.05;;;22.30;99.90;;;;;;12519851;28;20046;-36
2023/07/14 21:20:56;;;;;;;4.05;1.95;;;22.20;99.90;;;;;;12497488;28;20049;-36
2023/07/14 21:26:58;;;;;;;;;;;22.10;99.90;;;;;;12514901;28;20493;-36
2023/07/14 21:33:00;;;;;;;4.07;1.70;;;22.20;99.90;;;;;;12512202;28;19928;-36
2023/07/14 21:39:10;;;;;;;4.32;1.92;;;22.20;99.90;;;;;;12503742;28;20049;-36
2023/07/14 21:45:15;;;;;;;5.15;1.80;;;22.20;99.90;;;;;;12484120;28;20053;-36
2023/07/14 21:51:21;;;;;;;3.92;1.70;;;22.10;99.90;;;;;;12505228;28;20045;-35
2023/07/14 21:57:23;;;;;;;4.32;1.65;;;22.00;99.90;;;;;;12517686;28;20476;-36
2023/07/14 22:03:26;;;;;;;6.85;1.85;;;22.00;99.90;;;;;;12508725;28;20052;-36
2023/07/14 22:09:29;;;;;;;6.28;2.03;;;21.90;99.90;;;;;;12507551;28;20052;-36
2023/07/14 22:15:31;;;;;;;8.00;2.55;;;21.90;99.90;;;;;;12506681;28;20418;-36
2023/07/14 22:21:33;;;;;;;4.03;1.85;;;21.90;99.90;;;;;;12505200;28;20056;-36
2023/07/14 22:27:35;;;;;;;4.50;1.70;;;21.90;99.90;;;;;;12511986;28;20417;-36
2023/07/14 22:33:37;;;;;;;5.10;1.70;;;22.00;99.90;;;;;;12512206;28;20057;-36
2023/07/14 22:39:40;;;;;;;4.32;1.88;;;22.10;99.90;;;;;;12522061;28;20045;-36
2023/07/14 22:45:44;;;;;;;3.40;1.90;;;22.10;99.90;;;;;;12505313;28;20053;-36
2023/07/14 22:51:53;;;;;;;7.43;1.70;;;22.10;99.90;;;;;;12493689;28;20486;-36
2023/07/14 22:57:55;;;;;;;4.85;1.85;;;22.10;99.90;;;;;;12512400;28;20478;-36
2023/07/14 23:04:01;;;;;;;5.15;2.00;;;22.00;99.90;;;;;;12501076;28;20132;-35
2023/07/14 23:10:03;;;;;;;3.30;2.10;;;22.00;99.90;;;;;;12530733;28;20110;-36
2023/07/14 23:16:06;;;;;;;2.83;1.60;;;22.10;99.90;;;;;;12529607;28;20156;-36
2023/07/14 23:22:09;;;;;;;4.70;1.70;;;21.90;99.90;;;;;;12498121;28;20099;-36
2023/07/14 23:28:11;;;;;;;7.60;1.60;;;22.00;99.90;;;;;;12523769;28;20136;-35
2023/07/14 23:34:14;;;;;;;7.85;1.67;;;21.90;99.90;;;;;;12507478;28;20061;-36
2023/07/14 23:40:18;;;;;;;6.13;1.70;;;22.00;99.90;;;;;;12505058;28;20080;-36
2023/07/14 23:46:21;;;;;;;2.78;1.55;;;22.10;99.90;;;;;;12489132;28;20053;-35
2023/07/14 23:52:24;;;;;;;4.03;1.90;;;22.00;99.90;;;;;;12500946;28;20048;-36
2023/07/14 23:58:29;;;;;;;6.25;1.90;;;22.00;99.90;;;;;;12517802;28;20421;-35
